Time;durP1;ratioP1;P1;durP2;ratioP2;P2;SDS_P1;SDS_P2;PMS_P1;PMS_P2;Temp;Humidity;BMP_temperature;BMP_pressure;BME280_temperature;BME280_humidity;BME280_pressure;Samples;Min_cycle;Max_cycle;Signal;HPM_P1;HPM_P2
2022/06/22 00:01:05;;;;;;;18.17;16.27;;;;;;;;;;5009160;28;20053;-71
2022/06/22 00:03:32;;;;;;;19.02;15.57;;;;;;;;;;5010241;28;20430;-72
2022/06/22 00:05:57;;;;;;;17.95;16.10;;;;;;;;;;5011247;28;20079;-71
2022/06/22 00:08:32;;;;;;;23.73;16.55;;;;;;;;;;5011496;28;20470;-72
2022/06/22 00:10:59;;;;;;;22.85;17.02;;;;;;;;;;5026482;28;20458;-71
2022/06/22 00:13:26;;;;;;;18.92;15.88;;;;;;;;;;5026594;28;20565;-71
2022/06/22 00:16:00;;;;;;;17.35;15.60;;;;;;;;;;5009798;28;20044;-71
2022/06/22 00:18:26;;;;;;;22.90;17.73;;;;;;;;;;5011457;28;20065;-72
2022/06/22 00:20:52;;;;;;;18.65;16.38;;;;;;;;;;5010995;28;20414;-72
2022/06/22 00:23:34;;;;;;;17.75;15.60;;;;;;;;;;5026573;28;20096;-71
2022/06/22 00:26:19;;;;;;;18.95;15.93;;;;;;;;;;5010911;28;20092;-71
2022/06/22 00:28:52;;;;;;;21.23;16.60;;;;;;;;;;5010927;28;20034;-72
2022/06/22 00:31:25;;;;;;;19.38;16.10;;;;;;;;;;5009009;28;20146;-73
2022/06/22 00:34:01;;;;;;;20.98;16.85;;;;;;;;;;5030858;28;20057;-71
2022/06/22 00:36:26;;;;;;;17.10;15.57;;;;;;;;;;5030695;28;20072;-74
2022/06/22 00:38:52;;;;;;;16.90;15.10;;;;;;;;;;5030574;28;20049;-72
2022/06/22 00:41:21;;;;;;;17.25;15.35;;;;;;;;;;5013848;28;20536;-72
2022/06/22 00:43:46;;;;;;;21.00;14.75;;;;;;;;;;5032422;28;20076;-70
2022/06/22 00:46:13;;;;;;;21.02;14.23;;;;;;;;;;4996880;28;20069;-71
2022/06/22 00:48:39;;;;;;;16.92;13.50;;;;;;;;;;5013055;28;20192;-71
2022/06/22 00:51:06;;;;;;;24.30;14.43;;;;;;;;;;5030205;28;20120;-72
2022/06/22 00:53:36;;;;;;;22.00;13.23;;;;;;;;;;5012909;28;20045;-71
2022/06/22 00:56:11;;;;;;;17.00;12.83;;;;;;;;;;5012521;28;20056;-71
2022/06/22 00:58:56;;;;;;;17.80;13.02;;;;;;;;;;5015619;28;20410;-70
2022/06/22 01:01:24;;;;;;;16.67;12.75;;;;;;;;;;5050203;28;20084;-71
2022/06/22 01:03:50;;;;;;;15.20;12.98;;;;;;;;;;5015679;28;20088;-71
2022/06/22 01:06:17;;;;;;;23.95;13.48;;;;;;;;;;5032280;28;20047;-71
2022/06/22 01:08:54;;;;;;;18.92;12.90;;;;;;;;;;5016108;28;20109;-71
2022/06/22 01:14:11;;;;;;;16.75;13.25;;;;;;;;;;5049866;28;20148;-71
2022/06/22 01:16:38;;;;;;;14.63;13.07;;;;;;;;;;5032136;28;20091;-71
2022/06/22 01:19:23;;;;;;;18.65;13.02;;;;;;;;;;4999206;28;20477;-72
2022/06/22 01:21:51;;;;;;;16.35;12.57;;;;;;;;;;5048475;28;20049;-71
2022/06/22 01:24:17;;;;;;;20.05;13.38;;;;;;;;;;5032129;28;20053;-71
2022/06/22 01:27:09;;;;;;;16.00;14.13;;;;;;;;;;5049706;28;20099;-70
2022/06/22 01:29:35;;;;;;;17.35;14.23;;;;;;;;;;5026239;28;20548;-70
2022/06/22 01:32:02;;;;;;;19.13;15.88;;;;;;;;;;5049456;28;20048;-72
2022/06/22 01:34:34;;;;;;;25.55;16.50;;;;;;;;;;5048403;28;20059;-70
2022/06/22 01:37:01;;;;;;;22.25;15.18;;;;;;;;;;5031642;28;20456;-71
2022/06/22 01:39:26;;;;;;;16.95;14.10;;;;;;;;;;5049701;28;20041;-72
2022/06/22 01:41:58;;;;;;;20.05;13.50;;;;;;;;;;5049361;28;20048;-71
2022/06/22 01:44:23;;;;;;;14.90;12.05;;;;;;;;;;5031828;28;20052;-71
2022/06/22 01:47:08;;;;;;;17.65;12.70;;;;;;;;;;5031534;28;20041;-72
2022/06/22 01:49:38;;;;;;;22.30;12.32;;;;;;;;;;5049659;28;20129;-72
2022/06/22 01:52:05;;;;;;;11.68;10.48;;;;;;;;;;5049195;28;20049;-72
2022/06/22 01:54:36;;;;;;;18.23;11.65;;;;;;;;;;5031649;28;20466;-70
2022/06/22 01:57:06;;;;;;;12.10;10.35;;;;;;;;;;5031565;28;20045;-71
2022/06/22 01:59:37;;;;;;;13.40;9.77;;;;;;;;;;5049881;28;20045;-71
2022/06/22 02:02:08;;;;;;;10.57;9.32;;;;;;;;;;5050155;28;20486;-72
2022/06/22 02:04:43;;;;;;;9.82;8.70;;;;;;;;;;5050192;28;20044;-72
2022/06/22 02:10:02;;;;;;;10.88;8.98;;;;;;;;;;5034030;28;20032;-72
2022/06/22 02:12:31;;;;;;;21.65;9.25;;;;;;;;;;5031507;28;20536;-71
2022/06/22 02:15:07;;;;;;;9.15;8.35;;;;;;;;;;5048819;28;20091;-71
2022/06/22 02:17:35;;;;;;;12.88;8.80;;;;;;;;;;5031471;28;20102;-70
2022/06/22 02:20:13;;;;;;;14.98;7.72;;;;;;;;;;5031216;28;20083;-71
2022/06/22 02:22:39;;;;;;;13.25;7.50;;;;;;;;;;5049055;28;20029;-71
2022/06/22 02:25:05;;;;;;;12.48;7.72;;;;;;;;;;5031370;28;20540;-71
2022/06/22 02:27:31;;;;;;;9.05;7.18;;;;;;;;;;5048957;28;20099;-71
2022/06/22 02:29:57;;;;;;;8.20;7.55;;;;;;;;;;5048754;28;20140;-71
2022/06/22 02:32:23;;;;;;;8.70;7.50;;;;;;;;;;5049023;28;20116;-70
2022/06/22 02:34:50;;;;;;;8.00;7.18;;;;;;;;;;5031033;28;20057;-72
2022/06/22 02:37:16;;;;;;;12.02;7.40;;;;;;;;;;5048599;28;20037;-71
2022/06/22 02:39:46;;;;;;;8.73;7.22;;;;;;;;;;5049107;28;20410;-70
2022/06/22 02:44:57;;;;;;;9.98;7.38;;;;;;;;;;5048895;28;20051;-73
2022/06/22 02:47:25;;;;;;;8.15;7.00;;;;;;;;;;5048888;28;20405;-72
2022/06/22 02:50:01;;;;;;;7.72;6.63;;;;;;;;;;5049130;28;20044;-72
2022/06/22 02:52:31;;;;;;;7.45;6.80;;;;;;;;;;5049161;28;20041;-70
2022/06/22 02:54:57;;;;;;;8.40;5.75;;;;;;;;;;5034631;28;20056;-72
2022/06/22 02:57:23;;;;;;;6.60;5.93;;;;;;;;;;5052539;28;20512;-71
2022/06/22 02:59:49;;;;;;;7.10;6.35;;;;;;;;;;5052413;28;20072;-71
2022/06/22 03:02:16;;;;;;;6.63;6.00;;;;;;;;;;5051125;28;20121;-73
2022/06/22 03:04:42;;;;;;;7.38;5.75;;;;;;;;;;5052751;28;20041;-72
2022/06/22 03:07:08;;;;;;;6.55;5.90;;;;;;;;;;5017856;28;20044;-71
2022/06/22 03:09:34;;;;;;;6.90;5.90;;;;;;;;;;5052445;28;20456;-71
2022/06/22 03:12:00;;;;;;;7.13;6.43;;;;;;;;;;5034236;28;20044;-73
2022/06/22 03:14:26;;;;;;;6.25;5.63;;;;;;;;;;5052296;28;20110;-72
2022/06/22 03:17:10;;;;;;;6.10;5.50;;;;;;;;;;5051968;28;20075;-72
2022/06/22 03:19:59;;;;;;;6.13;5.55;;;;;;;;;;5052167;28;20051;-72
2022/06/22 03:22:28;;;;;;;7.85;5.95;;;;;;;;;;5034435;28;20043;-70
2022/06/22 03:25:03;;;;;;;6.22;5.75;;;;;;;;;;5052302;28;20279;-72
2022/06/22 03:27:29;;;;;;;5.07;4.78;;;;;;;;;;5034307;28;20045;-72
2022/06/22 03:30:00;;;;;;;6.75;5.15;;;;;;;;;;5034184;28;20398;-72
2022/06/22 03:32:27;;;;;;;5.93;4.65;;;;;;;;;;5051923;28;20040;-72
2022/06/22 03:35:02;;;;;;;6.35;4.90;;;;;;;;;;5034021;28;20098;-72
2022/06/22 03:37:36;;;;;;;5.13;4.72;;;;;;;;;;5034136;28;20080;-72
2022/06/22 03:40:04;;;;;;;5.20;4.85;;;;;;;;;;5033992;28;20056;-70
2022/06/22 03:42:31;;;;;;;8.02;4.97;;;;;;;;;;5050278;28;20102;-71
2022/06/22 03:44:59;;;;;;;7.13;5.50;;;;;;;;;;5051725;28;20043;-71
2022/06/22 03:47:27;;;;;;;6.45;5.05;;;;;;;;;;5051375;28;20041;-72
2022/06/22 03:49:57;;;;;;;5.63;5.13;;;;;;;;;;5051554;28;20433;-72
2022/06/22 03:52:26;;;;;;;5.22;4.85;;;;;;;;;;5051277;28;20242;-72
2022/06/22 03:54:56;;;;;;;5.32;4.82;;;;;;;;;;5051209;28;20045;-70
2022/06/22 03:57:23;;;;;;;5.40;5.00;;;;;;;;;;5033522;28;20092;-72
2022/06/22 03:59:48;;;;;;;5.05;4.65;;;;;;;;;;5033485;28;20152;-71
2022/06/22 04:02:15;;;;;;;5.47;5.15;;;;;;;;;;5050891;28;20132;-73
2022/06/22 04:04:41;;;;;;;6.05;5.43;;;;;;;;;;5032384;28;20039;-73
2022/06/22 04:07:13;;;;;;;6.85;4.97;;;;;;;;;;5050974;28;20492;-72
2022/06/22 04:09:39;;;;;;;10.90;5.20;;;;;;;;;;5034200;28;20060;-73
2022/06/22 04:12:16;;;;;;;5.40;4.90;;;;;;;;;;5033064;28;20075;-72
2022/06/22 04:14:51;;;;;;;5.72;5.32;;;;;;;;;;5033373;28;20126;-73
2022/06/22 04:17:26;;;;;;;6.97;5.07;;;;;;;;;;5033107;28;20474;-72
2022/06/22 04:19:57;;;;;;;6.50;5.88;;;;;;;;;;5051049;28;20041;-72
2022/06/22 04:22:23;;;;;;;5.90;5.50;;;;;;;;;;5050694;28;20047;-72
2022/06/22 04:24:57;;;;;;;5.80;5.45;;;;;;;;;;5017226;28;20160;-73
2022/06/22 04:27:49;;;;;;;5.95;5.55;;;;;;;;;;5034453;28;20041;-74
2022/06/22 04:30:19;;;;;;;8.57;6.10;;;;;;;;;;5031329;28;20048;-74
2022/06/22 04:32:48;;;;;;;6.07;5.68;;;;;;;;;;5050677;28;20064;-74
2022/06/22 04:35:17;;;;;;;6.00;5.60;;;;;;;;;;5050467;28;20044;-74
2022/06/22 04:37:45;;;;;;;6.40;5.95;;;;;;;;;;5050606;28;20049;-74
2022/06/22 04:40:11;;;;;;;6.22;5.80;;;;;;;;;;5016069;28;20436;-74
2022/06/22 04:42:37;;;;;;;7.10;5.80;;;;;;;;;;5032618;28;20045;-74
2022/06/22 04:45:03;;;;;;;6.03;5.63;;;;;;;;;;5032845;28;20049;-74
2022/06/22 04:47:30;;;;;;;8.25;6.40;;;;;;;;;;5032560;28;20095;-74
2022/06/22 04:50:06;;;;;;;5.90;5.50;;;;;;;;;;5032433;28;20041;-74
2022/06/22 04:52:47;;;;;;;5.57;5.15;;;;;;;;;;5050377;28;20056;-74
2022/06/22 04:55:14;;;;;;;6.35;5.85;;;;;;;;;;5032647;28;20048;-74
2022/06/22 04:57:40;;;;;;;6.63;5.72;;;;;;;;;;5032340;28;20186;-74
2022/06/22 05:00:07;;;;;;;6.93;6.25;;;;;;;;;;5050017;28;20095;-75
2022/06/22 05:02:36;;;;;;;7.05;6.55;;;;;;;;;;5050070;28;20464;-74
2022/06/22 05:05:04;;;;;;;6.75;6.25;;;;;;;;;;5032560;28;20548;-74
2022/06/22 05:07:56;;;;;;;6.82;6.38;;;;;;;;;;5032107;28;20073;-74
2022/06/22 05:10:34;;;;;;;6.82;6.20;;;;;;;;;;5046958;28;20044;-74
2022/06/22 05:13:02;;;;;;;7.35;6.53;;;;;;;;;;5049889;28;20087;-74
2022/06/22 05:15:32;;;;;;;7.88;6.35;;;;;;;;;;4998859;28;20543;-74
2022/06/22 05:17:58;;;;;;;6.07;5.72;;;;;;;;;;5050134;28;20071;-74
2022/06/22 05:20:33;;;;;;;6.38;5.85;;;;;;;;;;5033531;28;20045;-74
2022/06/22 05:23:00;;;;;;;6.68;6.00;;;;;;;;;;5051104;28;20413;-74
2022/06/22 05:25:26;;;;;;;6.75;6.25;;;;;;;;;;5032145;28;20065;-74
2022/06/22 05:28:03;;;;;;;9.63;6.47;;;;;;;;;;5049587;28;20045;-74
2022/06/22 05:30:30;;;;;;;7.18;6.47;;;;;;;;;;5049565;28;20053;-73
2022/06/22 05:32:58;;;;;;;6.50;5.82;;;;;;;;;;5048381;28;20036;-74
2022/06/22 05:35:27;;;;;;;6.53;6.03;;;;;;;;;;5031796;28;20049;-74
2022/06/22 05:37:53;;;;;;;6.75;6.25;;;;;;;;;;5048266;28;20041;-74
2022/06/22 05:40:19;;;;;;;6.80;5.95;;;;;;;;;;5031913;28;20044;-74
2022/06/22 05:42:45;;;;;;;6.05;5.65;;;;;;;;;;5031786;28;20039;-74
2022/06/22 05:45:18;;;;;;;8.88;6.85;;;;;;;;;;5049266;28;20551;-74
2022/06/22 05:47:44;;;;;;;6.50;6.00;;;;;;;;;;5015318;28;20051;-73
2022/06/22 05:50:29;;;;;;;7.00;5.88;;;;;;;;;;5048040;28;20041;-75
2022/06/22 05:53:16;;;;;;;6.47;5.93;;;;;;;;;;5048113;28;20036;-74
2022/06/22 05:55:45;;;;;;;6.45;5.95;;;;;;;;;;5031908;28;20059;-74
2022/06/22 05:58:20;;;;;;;6.97;5.90;;;;;;;;;;5031349;28;20044;-74
2022/06/22 06:00:48;;;;;;;6.50;6.00;;;;;;;;;;5049600;28;20053;-74
2022/06/22 06:03:13;;;;;;;5.88;5.47;;;;;;;;;;5049089;28;20037;-74
2022/06/22 06:05:41;;;;;;;6.38;5.78;;;;;;;;;;5049434;28;20107;-74
2022/06/22 06:08:17;;;;;;;9.40;5.80;;;;;;;;;;5015317;28;20037;-74
2022/06/22 06:10:43;;;;;;;9.27;5.97;;;;;;;;;;5031691;28;20556;-74
2022/06/22 06:13:11;;;;;;;15.90;6.75;;;;;;;;;;5049343;28;20041;-74
2022/06/22 06:15:38;;;;;;;6.55;6.05;;;;;;;;;;5049231;28;20061;-74
2022/06/22 06:18:04;;;;;;;5.80;5.30;;;;;;;;;;5049413;28;20127;-74
2022/06/22 06:20:32;;;;;;;5.97;5.47;;;;;;;;;;5049164;28;20651;-74
2022/06/22 06:22:59;;;;;;;6.75;6.15;;;;;;;;;;5031344;28;20190;-74
2022/06/22 06:28:16;;;;;;;6.82;6.22;;;;;;;;;;5035798;28;20044;-74
2022/06/22 06:30:43;;;;;;;6.30;5.80;;;;;;;;;;5018932;28;20501;-75
2022/06/22 06:33:15;;;;;;;6.10;5.60;;;;;;;;;;5035902;28;20061;-74
2022/06/22 06:35:48;;;;;;;6.38;5.88;;;;;;;;;;5053620;28;20060;-74
2022/06/22 06:38:14;;;;;;;6.47;6.07;;;;;;;;;;5051393;28;20041;-75
2022/06/22 06:40:41;;;;;;;6.47;5.93;;;;;;;;;;5052799;28;20111;-74
2022/06/22 06:43:13;;;;;;;6.57;6.03;;;;;;;;;;5035491;28;20098;-75
2022/06/22 06:45:40;;;;;;;6.32;5.43;;;;;;;;;;5053167;28;20048;-74
2022/06/22 06:48:06;;;;;;;6.15;5.65;;;;;;;;;;5035373;28;20045;-74
2022/06/22 06:50:37;;;;;;;6.32;5.43;;;;;;;;;;5034934;28;20045;-74
2022/06/22 06:53:21;;;;;;;6.82;5.32;;;;;;;;;;5035064;28;20124;-76
2022/06/22 06:55:53;;;;;;;7.10;5.80;;;;;;;;;;5052754;28;20060;-74
2022/06/22 06:58:27;;;;;;;5.88;5.28;;;;;;;;;;5034536;28;20044;-75
2022/06/22 07:00:53;;;;;;;6.10;5.60;;;;;;;;;;5052958;28;20106;-74
2022/06/22 07:03:21;;;;;;;5.85;5.45;;;;;;;;;;5051007;28;20041;-74
2022/06/22 07:05:47;;;;;;;6.35;5.80;;;;;;;;;;5034793;28;20412;-74
2022/06/22 07:08:15;;;;;;;6.95;5.85;;;;;;;;;;5052296;28;20072;-74
2022/06/22 07:10:43;;;;;;;6.00;5.47;;;;;;;;;;5052512;28;20037;-74
2022/06/22 07:13:18;;;;;;;6.10;5.60;;;;;;;;;;5036503;28;20061;-74
2022/06/22 07:15:45;;;;;;;6.43;5.82;;;;;;;;;;5036762;28;20053;-75
2022/06/22 07:18:28;;;;;;;6.50;5.82;;;;;;;;;;5052387;28;20528;-74
2022/06/22 07:21:01;;;;;;;6.18;5.43;;;;;;;;;;5001679;28;20468;-74
2022/06/22 07:23:35;;;;;;;7.60;5.55;;;;;;;;;;5017669;28;20076;-74
2022/06/22 07:26:21;;;;;;;6.63;5.63;;;;;;;;;;5018017;28;20041;-74
2022/06/22 07:28:49;;;;;;;6.13;5.53;;;;;;;;;;5033584;28;20049;-74
2022/06/22 07:31:35;;;;;;;7.03;6.28;;;;;;;;;;5051770;28;20071;-75
2022/06/22 07:34:02;;;;;;;7.07;6.25;;;;;;;;;;5034357;28;20080;-74
2022/06/22 07:36:33;;;;;;;5.55;5.10;;;;;;;;;;5034249;28;20509;-74
2022/06/22 07:39:01;;;;;;;5.25;4.75;;;;;;;;;;5034248;28;20057;-74
2022/06/22 07:41:29;;;;;;;7.75;5.03;;;;;;;;;;5017542;28;20045;-74
2022/06/22 07:44:10;;;;;;;6.43;4.90;;;;;;;;;;5034137;28;20648;-74
2022/06/22 07:46:43;;;;;;;5.03;4.63;;;;;;;;;;5033747;28;20107;-74
2022/06/22 07:49:11;;;;;;;6.03;5.22;;;;;;;;;;5034065;28;20102;-74
2022/06/22 07:51:38;;;;;;;6.15;5.60;;;;;;;;;;5033628;28;20410;-74
2022/06/22 07:54:06;;;;;;;6.03;5.32;;;;;;;;;;5017636;28;20044;-73
2022/06/22 07:56:36;;;;;;;6.78;5.30;;;;;;;;;;5033815;28;20509;-71
2022/06/22 07:59:03;;;;;;;5.63;5.23;;;;;;;;;;5033573;28;20041;-71
2022/06/22 08:01:30;;;;;;;6.25;5.80;;;;;;;;;;5051484;28;20307;-73
2022/06/22 08:04:01;;;;;;;6.55;5.95;;;;;;;;;;5017056;28;20076;-73
2022/06/22 08:06:29;;;;;;;6.95;5.60;;;;;;;;;;5033586;28;20071;-73
2022/06/22 08:09:21;;;;;;;5.55;5.05;;;;;;;;;;5049626;28;20125;-72
2022/06/22 08:11:51;;;;;;;4.75;4.43;;;;;;;;;;5048213;28;20106;-72
2022/06/22 08:14:19;;;;;;;5.32;4.82;;;;;;;;;;5033363;28;20499;-73
2022/06/22 08:16:46;;;;;;;5.00;4.60;;;;;;;;;;5033651;28;20119;-73
2022/06/22 08:19:12;;;;;;;4.90;4.60;;;;;;;;;;5034174;28;20041;-74
2022/06/22 08:21:42;;;;;;;5.38;4.88;;;;;;;;;;5051881;28;20045;-74
2022/06/22 08:24:09;;;;;;;5.47;4.97;;;;;;;;;;5017865;28;20052;-72
2022/06/22 08:26:36;;;;;;;5.57;5.13;;;;;;;;;;5053349;28;20284;-72
2022/06/22 08:29:01;;;;;;;5.25;4.03;;;;;;;;;;5053609;28;20402;-72
2022/06/22 08:31:31;;;;;;;7.13;3.90;;;;;;;;;;5050304;28;20047;-72
2022/06/22 08:33:58;;;;;;;4.35;4.05;;;;;;;;;;5033662;28;20057;-72
2022/06/22 08:36:31;;;;;;;4.38;4.03;;;;;;;;;;5051608;28;20048;-71
2022/06/22 08:39:01;;;;;;;4.10;3.80;;;;;;;;;;5051283;28;20058;-72
2022/06/22 08:41:27;;;;;;;4.28;3.88;;;;;;;;;;5051227;28;20060;-70
2022/06/22 08:44:12;;;;;;;4.13;3.83;;;;;;;;;;5051081;28;20072;-73
2022/06/22 08:46:57;;;;;;;5.00;3.80;;;;;;;;;;5050789;28;20163;-72
2022/06/22 08:49:28;;;;;;;4.90;4.00;;;;;;;;;;5050359;28;20037;-72
2022/06/22 08:52:13;;;;;;;4.40;4.10;;;;;;;;;;5049689;28;20053;-71
2022/06/22 08:54:58;;;;;;;4.57;4.18;;;;;;;;;;5050073;28;20962;-72
2022/06/22 08:57:42;;;;;;;4.43;3.80;;;;;;;;;;5049999;28;20068;-72
2022/06/22 09:00:38;;;;;;;4.20;3.90;;;;;;;;;;5050345;28;20053;-73
2022/06/22 09:03:11;;;;;;;3.75;3.45;;;;;;;;;;5036836;28;20047;-71
2022/06/22 09:05:39;;;;;;;3.40;3.20;;;;;;;;;;5050047;28;20033;-73
2022/06/22 09:08:23;;;;;;;3.10;2.90;;;;;;;;;;5032260;28;20068;-72
2022/06/22 09:10:59;;;;;;;3.53;3.22;;;;;;;;;;5050158;28;20052;-73
2022/06/22 09:13:31;;;;;;;3.50;3.30;;;;;;;;;;5049810;28;20043;-73
2022/06/22 09:16:15;;;;;;;3.92;3.10;;;;;;;;;;5049884;28;20055;-72
2022/06/22 09:18:59;;;;;;;4.63;3.38;;;;;;;;;;5050048;28;20102;-71
2022/06/22 09:21:25;;;;;;;3.58;3.33;;;;;;;;;;5049782;28;20579;-73
2022/06/22 09:23:57;;;;;;;3.38;3.13;;;;;;;;;;5049679;28;20131;-74
2022/06/22 09:26:42;;;;;;;4.45;3.08;;;;;;;;;;5049576;28;20063;-72
2022/06/22 09:29:14;;;;;;;5.75;3.03;;;;;;;;;;5049658;28;20098;-72
2022/06/22 09:31:51;;;;;;;3.60;3.40;;;;;;;;;;5049494;28;20048;-72
2022/06/22 09:34:37;;;;;;;3.20;2.90;;;;;;;;;;5031539;28;20152;-72
2022/06/22 09:37:39;;;;;;;3.80;3.28;;;;;;;;;;5031690;28;20527;-71
2022/06/22 09:40:20;;;;;;;5.20;3.22;;;;;;;;;;4987853;28;20048;-72
2022/06/22 09:42:56;;;;;;;4.20;3.45;;;;;;;;;;5025240;28;20143;-72
2022/06/22 09:45:25;;;;;;;4.40;3.63;;;;;;;;;;5050083;28;20082;-70
2022/06/22 09:48:03;;;;;;;4.10;3.22;;;;;;;;;;5049571;28;20051;-72
2022/06/22 09:50:36;;;;;;;3.65;3.45;;;;;;;;;;5031589;28;20044;-72
2022/06/22 09:53:17;;;;;;;3.92;3.42;;;;;;;;;;5049525;28;20086;-72
2022/06/22 09:58:36;;;;;;;3.33;2.75;;;;;;;;;;5031245;28;20191;-72
2022/06/22 10:01:08;;;;;;;3.33;3.00;;;;;;;;;;5049253;28;20037;-71
2022/06/22 10:03:50;;;;;;;3.65;2.92;;;;;;;;;;5030329;28;20122;-72
2022/06/22 10:06:19;;;;;;;3.10;2.90;;;;;;;;;;5049348;28;20041;-72
2022/06/22 10:09:03;;;;;;;4.72;2.90;;;;;;;;;;5049056;28;20041;-71
2022/06/22 10:11:56;;;;;;;3.30;3.00;;;;;;;;;;5049027;28;20045;-70
2022/06/22 10:14:22;;;;;;;3.65;2.72;;;;;;;;;;5025512;28;20088;-72
2022/06/22 10:17:06;;;;;;;2.40;2.20;;;;;;;;;;5048789;28;20083;-72
2022/06/22 10:19:51;;;;;;;2.20;2.10;;;;;;;;;;5048831;28;20075;-71
2022/06/22 10:22:26;;;;;;;2.60;2.40;;;;;;;;;;5049072;28;20057;-71
2022/06/22 10:24:55;;;;;;;2.70;2.50;;;;;;;;;;5048924;28;20524;-72
2022/06/22 10:27:28;;;;;;;3.45;2.28;;;;;;;;;;5031054;28;20132;-71
2022/06/22 10:30:03;;;;;;;8.35;2.17;;;;;;;;;;5015075;28;20124;-70
2022/06/22 10:32:29;;;;;;;2.58;2.10;;;;;;;;;;5030820;28;20094;-71
2022/06/22 10:35:17;;;;;;;2.17;2.03;;;;;;;;;;5048942;28;20049;-71
2022/06/22 10:37:46;;;;;;;2.00;1.90;;;;;;;;;;5048484;28;20033;-71
2022/06/22 10:45:08;;;;;;;2.05;1.88;;;;;;;;;;5048865;28;20532;-72
2022/06/22 10:45:56;;;;;;;2.08;1.90;;;;;;;;;;5048733;28;20094;-71
2022/06/22 10:48:29;;;;;;;2.08;1.85;;;;;;;;;;5048737;28;20052;-71
2022/06/22 10:51:19;;;;;;;2.20;2.00;;;;;;;;;;5031029;28;20472;-71
2022/06/22 10:53:54;;;;;;;2.50;2.08;;;;;;;;;;5040485;28;20045;-71
2022/06/22 10:56:20;;;;;;;2.10;2.00;;;;;;;;;;5049057;28;20123;-71
2022/06/22 10:59:05;;;;;;;1.70;1.70;;;;;;;;;;5048862;28;20140;-71
2022/06/22 11:01:37;;;;;;;4.35;2.08;;;;;;;;;;5048888;28;20045;-71
2022/06/22 11:04:05;;;;;;;2.65;1.90;;;;;;;;;;5048794;28;20112;-70
2022/06/22 11:06:47;;;;;;;1.88;1.77;;;;;;;;;;5048167;28;20072;-71
2022/06/22 11:09:13;;;;;;;2.10;2.00;;;;;;;;;;5048197;28;20029;-71
2022/06/22 11:11:39;;;;;;;1.90;1.80;;;;;;;;;;5030449;28;20047;-70
2022/06/22 11:14:13;;;;;;;2.08;1.95;;;;;;;;;;5049302;28;20045;-72
2022/06/22 11:16:58;;;;;;;1.50;1.50;;;;;;;;;;5050268;28;20094;-70
2022/06/22 11:19:44;;;;;;;2.88;1.88;;;;;;;;;;5052636;28;20041;-71
2022/06/22 11:22:13;;;;;;;2.03;1.83;;;;;;;;;;5053272;28;20056;-71
2022/06/22 11:24:47;;;;;;;1.92;1.83;;;;;;;;;;5052273;28;20040;-70
2022/06/22 11:33:37;;;;;;;2.08;1.98;;;;;;;;;;5037255;28;20060;-70
2022/06/22 11:36:09;;;;;;;2.05;1.95;;;;;;;;;;5049205;28;20129;-70
2022/06/22 11:38:50;;;;;;;2.55;1.77;;;;;;;;;;5051577;28;20056;-70
2022/06/22 11:41:26;;;;;;;2.08;1.90;;;;;;;;;;5051886;28;20651;-71
2022/06/22 11:43:52;;;;;;;2.90;2.10;;;;;;;;;;5051183;28;20509;-69
2022/06/22 11:46:24;;;;;;;2.20;1.95;;;;;;;;;;5051694;28;20052;-70
2022/06/22 11:49:23;;;;;;;2.35;1.80;;;;;;;;;;5033597;28;20091;-71
2022/06/22 11:51:58;;;;;;;3.28;1.98;;;;;;;;;;5011488;28;20033;-71
2022/06/22 11:54:27;;;;;;;3.63;2.15;;;;;;;;;;5033600;28;20056;-71
2022/06/22 11:57:00;;;;;;;2.40;2.20;;;;;;;;;;5049931;28;20072;-71
2022/06/22 11:59:42;;;;;;;4.53;2.30;;;;;;;;;;5050006;28;20091;-71
2022/06/22 12:02:26;;;;;;;2.22;2.05;;;;;;;;;;5051465;28;20040;-71
2022/06/22 12:05:05;;;;;;;2.00;1.90;;;;;;;;;;5051115;28;20033;-71
2022/06/22 12:07:50;;;;;;;2.13;2.03;;;;;;;;;;5033408;28;20124;-70
2022/06/22 12:10:31;;;;;;;2.25;2.00;;;;;;;;;;5051352;28;20081;-71
2022/06/22 12:13:12;;;;;;;2.55;2.35;;;;;;;;;;5051343;28;20080;-70
2022/06/22 12:15:57;;;;;;;2.20;2.10;;;;;;;;;;5033270;28;20047;-71
2022/06/22 12:18:29;;;;;;;3.20;2.10;;;;;;;;;;5051243;28;20045;-71
2022/06/22 12:21:09;;;;;;;2.10;2.00;;;;;;;;;;5050904;28;20048;-71
2022/06/22 12:23:41;;;;;;;2.30;2.20;;;;;;;;;;5033038;28;20077;-71
2022/06/22 12:26:15;;;;;;;3.55;2.30;;;;;;;;;;5050366;28;20040;-71
2022/06/22 12:28:59;;;;;;;2.42;2.25;;;;;;;;;;5032998;28;20048;-70
2022/06/22 12:31:26;;;;;;;2.40;2.20;;;;;;;;;;5029991;28;20047;-71
2022/06/22 12:34:00;;;;;;;2.22;2.13;;;;;;;;;;5050456;28;20190;-72
2022/06/22 12:36:33;;;;;;;4.53;1.88;;;;;;;;;;5033294;28;20041;-70
2022/06/22 12:39:05;;;;;;;5.32;2.00;;;;;;;;;;5033049;28;20099;-71
2022/06/22 12:41:49;;;;;;;1.92;1.83;;;;;;;;;;5051051;28;20045;-70
2022/06/22 12:44:15;;;;;;;2.42;2.00;;;;;;;;;;5032770;28;20048;-71
2022/06/22 12:47:00;;;;;;;7.10;2.30;;;;;;;;;;5049176;28;20380;-72
2022/06/22 12:49:26;;;;;;;2.28;1.90;;;;;;;;;;5050396;28;20037;-70
2022/06/22 12:52:01;;;;;;;2.20;2.10;;;;;;;;;;5050258;28;20045;-71
2022/06/22 12:54:28;;;;;;;2.45;1.98;;;;;;;;;;5050560;28;20130;-70
2022/06/22 12:57:02;;;;;;;4.13;2.20;;;;;;;;;;5050170;28;20516;-71
2022/06/22 12:59:30;;;;;;;3.15;2.30;;;;;;;;;;5050187;28;20052;-70
2022/06/22 13:01:56;;;;;;;2.83;1.75;;;;;;;;;;5032209;28;20041;-70
2022/06/22 13:04:24;;;;;;;2.80;2.03;;;;;;;;;;5032401;28;20048;-71
2022/06/22 13:06:54;;;;;;;2.50;2.10;;;;;;;;;;5050052;28;20150;-71
2022/06/22 13:09:20;;;;;;;4.38;1.90;;;;;;;;;;5032300;28;20545;-71
2022/06/22 13:11:48;;;;;;;2.28;2.10;;;;;;;;;;5050014;28;20045;-71
2022/06/22 13:14:20;;;;;;;2.95;1.90;;;;;;;;;;5049813;28;20087;-71
2022/06/22 13:16:49;;;;;;;2.22;2.03;;;;;;;;;;5031981;28;20055;-71
2022/06/22 13:19:24;;;;;;;3.97;2.03;;;;;;;;;;5031966;28;20044;-71
2022/06/22 13:21:56;;;;;;;3.22;2.28;;;;;;;;;;5049759;28;20460;-70
2022/06/22 13:24:35;;;;;;;2.75;2.00;;;;;;;;;;5032235;28;20041;-71
2022/06/22 13:27:20;;;;;;;4.13;2.08;;;;;;;;;;5031988;28;20045;-71
2022/06/22 13:29:47;;;;;;;2.40;2.20;;;;;;;;;;5049223;28;20037;-71
2022/06/22 13:32:13;;;;;;;1.85;1.70;;;;;;;;;;5049414;28;20044;-70
2022/06/22 13:34:40;;;;;;;3.28;1.95;;;;;;;;;;5014800;28;20052;-71
2022/06/22 13:37:27;;;;;;;2.35;2.15;;;;;;;;;;5031742;28;20088;-70
2022/06/22 13:39:54;;;;;;;2.15;2.03;;;;;;;;;;5049129;28;20044;-71
2022/06/22 13:42:29;;;;;;;1.60;1.58;;;;;;;;;;5031865;28;20047;-71
2022/06/22 13:44:58;;;;;;;1.77;1.65;;;;;;;;;;5049036;28;20041;-71
2022/06/22 13:47:24;;;;;;;2.20;1.60;;;;;;;;;;5049341;28;20052;-71
2022/06/22 13:50:31;;;;;;;2.08;1.50;;;;;;;;;;5049179;28;20037;-70
2022/06/22 13:52:58;;;;;;;4.68;1.50;;;;;;;;;;5026901;28;20082;-70
2022/06/22 13:55:43;;;;;;;2.10;2.00;;;;;;;;;;5049394;28;20106;-71
2022/06/22 13:58:17;;;;;;;2.35;2.00;;;;;;;;;;5049269;28;20056;-71
2022/06/22 14:00:43;;;;;;;1.80;1.70;;;;;;;;;;5031533;28;20479;-71
2022/06/22 14:03:29;;;;;;;2.80;1.90;;;;;;;;;;5049176;28;20061;-70
2022/06/22 14:06:09;;;;;;;2.90;1.70;;;;;;;;;;5031258;28;20045;-71
2022/06/22 14:08:35;;;;;;;1.60;1.60;;;;;;;;;;5031537;28;20039;-71
2022/06/22 14:11:06;;;;;;;1.80;1.67;;;;;;;;;;5048865;28;20044;-71
2022/06/22 14:13:39;;;;;;;3.90;1.40;;;;;;;;;;5031256;28;20477;-70
2022/06/22 14:16:17;;;;;;;1.73;1.63;;;;;;;;;;5014915;28;20194;-68
2022/06/22 14:18:52;;;;;;;3.15;1.42;;;;;;;;;;5031231;28;20479;-70
2022/06/22 14:21:22;;;;;;;4.97;1.73;;;;;;;;;;5031616;28;20075;-70
2022/06/22 14:23:47;;;;;;;1.88;1.30;;;;;;;;;;5048792;28;20107;-70
2022/06/22 14:26:31;;;;;;;3.33;1.40;;;;;;;;;;5049019;28;20041;-71
2022/06/22 14:28:57;;;;;;;2.35;1.45;;;;;;;;;;5048740;28;20116;-71
2022/06/22 14:31:36;;;;;;;3.22;1.50;;;;;;;;;;5049212;28;20484;-70
2022/06/22 14:34:22;;;;;;;1.45;1.40;;;;;;;;;;5014191;28;20037;-71
2022/06/22 14:36:50;;;;;;;1.52;1.35;;;;;;;;;;5048806;28;20037;-71
2022/06/22 14:39:25;;;;;;;2.08;1.67;;;;;;;;;;5031146;28;20454;-71
2022/06/22 14:41:51;;;;;;;2.08;1.80;;;;;;;;;;5048874;28;20065;-70
2022/06/22 14:44:21;;;;;;;3.58;1.88;;;;;;;;;;5048732;28;20222;-71
2022/06/22 14:46:47;;;;;;;;;;;;;;;;;;5031361;28;20041;-71
2022/06/22 14:49:13;;;;;;;1.55;1.48;;;;;;;;;;5050328;28;20309;-71
2022/06/22 14:51:50;;;;;;;1.50;1.40;;;;;;;;;;5052721;28;20398;-71
2022/06/22 14:54:18;;;;;;;1.60;1.50;;;;;;;;;;5052565;28;20565;-71
2022/06/22 14:56:43;;;;;;;2.25;1.67;;;;;;;;;;5051306;28;20044;-71
2022/06/22 14:59:15;;;;;;;1.70;1.60;;;;;;;;;;5052495;28;20061;-71
2022/06/22 15:01:47;;;;;;;1.80;1.50;;;;;;;;;;5052745;28;20119;-71
2022/06/22 15:04:32;;;;;;;1.42;1.38;;;;;;;;;;5034751;28;20141;-71
2022/06/22 15:07:11;;;;;;;1.23;1.23;;;;;;;;;;5052105;28;20424;-70
2022/06/22 15:09:46;;;;;;;1.98;1.42;;;;;;;;;;5034405;28;20037;-70
2022/06/22 15:15:10;;;;;;;1.63;1.52;;;;;;;;;;5036980;28;20049;-71
2022/06/22 15:17:55;;;;;;;3.20;1.60;;;;;;;;;;5051992;28;20068;-71
2022/06/22 15:20:41;;;;;;;2.30;1.50;;;;;;;;;;5052057;28;20452;-71
2022/06/22 15:23:11;;;;;;;3.58;1.65;;;;;;;;;;5017589;28;20635;-71
2022/06/22 15:25:36;;;;;;;1.60;1.48;;;;;;;;;;5036569;28;20045;-71
2022/06/22 15:28:05;;;;;;;1.25;1.25;;;;;;;;;;5054220;28;20047;-72
2022/06/22 15:30:34;;;;;;;2.33;1.52;;;;;;;;;;5034272;28;20547;-71
2022/06/22 15:33:01;;;;;;;1.40;1.40;;;;;;;;;;5034202;28;20425;-71
2022/06/22 15:35:33;;;;;;;1.80;1.52;;;;;;;;;;5033968;28;20061;-71
2022/06/22 15:38:18;;;;;;;1.67;1.17;;;;;;;;;;5033706;28;20037;-71